sensor_id;sensor_type;location;lat;lon;timestamp;P1;durP1;ratioP1;P2;durP2;ratioP2
68792;SDS011;55778;54.346;10.210;2022-10-30T00:02:24;43.03;;;17.23;;
68792;SDS011;55778;54.346;10.210;2022-10-30T00:04:50;40.03;;;17.40;;
68792;SDS011;55778;54.346;10.210;2022-10-30T00:07:15;43.80;;;16.95;;
68792;SDS011;55778;54.346;10.210;2022-10-30T00:09:40;38.35;;;16.67;;
68792;SDS011;55778;54.346;10.210;2022-10-30T00:12:06;41.33;;;17.02;;
68792;SDS011;55778;54.346;10.210;2022-10-30T00:14:31;38.55;;;15.93;;
68792;SDS011;55778;54.346;10.210;2022-10-30T00:16:56;42.42;;;16.95;;
68792;SDS011;55778;54.346;10.210;2022-10-30T00:19:22;42.90;;;16.88;;
68792;SDS011;55778;54.346;10.210;2022-10-30T00:21:47;39.38;;;15.90;;
68792;SDS011;55778;54.346;10.210;2022-10-30T00:24:13;40.10;;;16.40;;
68792;SDS011;55778;54.346;10.210;2022-10-30T00:26:38;42.38;;;18.83;;
68792;SDS011;55778;54.346;10.210;2022-10-30T00:29:03;42.13;;;18.23;;
68792;SDS011;55778;54.346;10.210;2022-10-30T00:31:29;43.13;;;17.30;;
68792;SDS011;55778;54.346;10.210;2022-10-30T00:33:54;40.95;;;17.48;;
68792;SDS011;55778;54.346;10.210;2022-10-30T00:36:20;43.20;;;18.25;;
68792;SDS011;55778;54.346;10.210;2022-10-30T00:38:46;35.63;;;18.00;;
68792;SDS011;55778;54.346;10.210;2022-10-30T00:41:15;43.55;;;18.98;;
68792;SDS011;55778;54.346;10.210;2022-10-30T00:43:42;39.95;;;18.17;;
68792;SDS011;55778;54.346;10.210;2022-10-30T00:48:43;40.13;;;18.02;;
68792;SDS011;55778;54.346;10.210;2022-10-30T00:51:12;42.88;;;18.35;;
68792;SDS011;55778;54.346;10.210;2022-10-30T00:53:38;43.95;;;18.67;;
68792;SDS011;55778;54.346;10.210;2022-10-30T00:56:06;42.03;;;17.67;;
68792;SDS011;55778;54.346;10.210;2022-10-30T00:58:41;46.13;;;18.98;;
68792;SDS011;55778;54.346;10.210;2022-10-30T01:01:12;42.30;;;17.83;;
68792;SDS011;55778;54.346;10.210;2022-10-30T01:03:43;46.33;;;21.25;;
68792;SDS011;55778;54.346;10.210;2022-10-30T01:06:09;41.65;;;21.10;;
68792;SDS011;55778;54.346;10.210;2022-10-30T01:08:38;42.85;;;19.77;;
68792;SDS011;55778;54.346;10.210;2022-10-30T01:11:05;41.65;;;18.88;;
68792;SDS011;55778;54.346;10.210;2022-10-30T01:13:32;40.72;;;19.45;;
68792;SDS011;55778;54.346;10.210;2022-10-30T01:22:00;39.30;;;18.30;;
68792;SDS011;55778;54.346;10.210;2022-10-30T01:35:31;47.22;;;20.00;;
68792;SDS011;55778;54.346;10.210;2022-10-30T01:38:17;46.20;;;19.45;;
68792;SDS011;55778;54.346;10.210;2022-10-30T01:40:47;39.72;;;18.98;;
68792;SDS011;55778;54.346;10.210;2022-10-30T01:43:13;41.60;;;19.25;;
68792;SDS011;55778;54.346;10.210;2022-10-30T01:56:58;40.60;;;18.02;;
68792;SDS011;55778;54.346;10.210;2022-10-30T01:59:30;44.58;;;19.20;;
68792;SDS011;55778;54.346;10.210;2022-10-30T02:02:02;43.70;;;18.42;;
68792;SDS011;55778;54.346;10.210;2022-10-30T02:04:27;39.55;;;18.67;;
68792;SDS011;55778;54.346;10.210;2022-10-30T02:06:53;40.67;;;17.90;;
68792;SDS011;55778;54.346;10.210;2022-10-30T02:09:19;37.90;;;18.05;;
68792;SDS011;55778;54.346;10.210;2022-10-30T02:11:45;38.30;;;17.88;;
68792;SDS011;55778;54.346;10.210;2022-10-30T02:14:14;40.90;;;17.95;;
68792;SDS011;55778;54.346;10.210;2022-10-30T02:16:44;38.13;;;18.15;;
68792;SDS011;55778;54.346;10.210;2022-10-30T02:19:14;41.08;;;18.33;;
68792;SDS011;55778;54.346;10.210;2022-10-30T02:21:40;37.47;;;19.10;;
68792;SDS011;55778;54.346;10.210;2022-10-30T02:24:06;36.20;;;18.15;;
68792;SDS011;55778;54.346;10.210;2022-10-30T02:26:31;40.17;;;18.15;;
68792;SDS011;55778;54.346;10.210;2022-10-30T02:28:56;39.45;;;18.20;;
68792;SDS011;55778;54.346;10.210;2022-10-30T02:31:22;41.00;;;18.48;;
68792;SDS011;55778;54.346;10.210;2022-10-30T02:33:47;37.67;;;17.60;;
68792;SDS011;55778;54.346;10.210;2022-10-30T02:36:13;40.05;;;18.58;;
68792;SDS011;55778;54.346;10.210;2022-10-30T02:38:41;40.67;;;18.95;;
68792;SDS011;55778;54.346;10.210;2022-10-30T02:41:08;42.17;;;19.67;;
68792;SDS011;55778;54.346;10.210;2022-10-30T02:43:34;39.55;;;18.30;;
68792;SDS011;55778;54.346;10.210;2022-10-30T02:45:59;43.55;;;19.05;;
68792;SDS011;55778;54.346;10.210;2022-10-30T02:48:25;43.20;;;19.40;;
68792;SDS011;55778;54.346;10.210;2022-10-30T02:50:50;40.17;;;18.95;;
68792;SDS011;55778;54.346;10.210;2022-10-30T02:53:15;38.70;;;18.45;;
68792;SDS011;55778;54.346;10.210;2022-10-30T02:55:41;41.47;;;18.80;;
68792;SDS011;55778;54.346;10.210;2022-10-30T02:58:06;37.45;;;18.75;;
68792;SDS011;55778;54.346;10.210;2022-10-30T03:00:31;40.00;;;18.95;;
68792;SDS011;55778;54.346;10.210;2022-10-30T03:02:57;44.53;;;19.23;;
68792;SDS011;55778;54.346;10.210;2022-10-30T03:05:22;40.00;;;18.83;;
68792;SDS011;55778;54.346;10.210;2022-10-30T03:07:48;38.25;;;18.75;;
68792;SDS011;55778;54.346;10.210;2022-10-30T03:10:15;45.33;;;19.50;;
68792;SDS011;55778;54.346;10.210;2022-10-30T03:12:41;60.22;;;30.77;;
68792;SDS011;55778;54.346;10.210;2022-10-30T03:15:07;43.17;;;19.67;;
68792;SDS011;55778;54.346;10.210;2022-10-30T03:17:32;46.53;;;20.75;;
68792;SDS011;55778;54.346;10.210;2022-10-30T03:19:58;40.05;;;19.42;;
68792;SDS011;55778;54.346;10.210;2022-10-30T03:22:23;41.15;;;18.95;;
68792;SDS011;55778;54.346;10.210;2022-10-30T03:24:49;44.05;;;19.77;;
68792;SDS011;55778;54.346;10.210;2022-10-30T03:27:14;44.53;;;19.50;;
68792;SDS011;55778;54.346;10.210;2022-10-30T03:29:39;43.88;;;19.35;;
68792;SDS011;55778;54.346;10.210;2022-10-30T03:32:08;41.17;;;19.27;;
68792;SDS011;55778;54.346;10.210;2022-10-30T03:34:35;41.88;;;19.95;;
68792;SDS011;55778;54.346;10.210;2022-10-30T03:37:01;43.28;;;19.50;;
68792;SDS011;55778;54.346;10.210;2022-10-30T03:39:26;43.22;;;19.35;;
68792;SDS011;55778;54.346;10.210;2022-10-30T03:41:51;40.75;;;19.08;;
68792;SDS011;55778;54.346;10.210;2022-10-30T03:44:17;37.90;;;18.42;;
68792;SDS011;55778;54.346;10.210;2022-10-30T03:46:42;38.15;;;18.40;;
68792;SDS011;55778;54.346;10.210;2022-10-30T03:49:07;41.30;;;18.95;;
68792;SDS011;55778;54.346;10.210;2022-10-30T03:51:33;40.65;;;19.50;;
68792;SDS011;55778;54.346;10.210;2022-10-30T03:53:58;33.53;;;17.80;;
68792;SDS011;55778;54.346;10.210;2022-10-30T03:56:23;31.75;;;16.75;;
68792;SDS011;55778;54.346;10.210;2022-10-30T03:58:49;41.50;;;18.88;;
68792;SDS011;55778;54.346;10.210;2022-10-30T04:01:14;41.10;;;19.50;;
68792;SDS011;55778;54.346;10.210;2022-10-30T04:03:40;39.08;;;18.15;;
68792;SDS011;55778;54.346;10.210;2022-10-30T04:06:05;45.58;;;22.88;;
68792;SDS011;55778;54.346;10.210;2022-10-30T04:08:31;42.13;;;19.35;;
68792;SDS011;55778;54.346;10.210;2022-10-30T04:10:57;40.20;;;18.30;;
68792;SDS011;55778;54.346;10.210;2022-10-30T04:13:22;35.10;;;17.88;;
68792;SDS011;55778;54.346;10.210;2022-10-30T04:15:48;45.05;;;18.33;;
68792;SDS011;55778;54.346;10.210;2022-10-30T04:18:14;34.63;;;17.77;;
68792;SDS011;55778;54.346;10.210;2022-10-30T04:20:40;38.05;;;18.45;;
68792;SDS011;55778;54.346;10.210;2022-10-30T04:23:06;44.72;;;18.15;;
68792;SDS011;55778;54.346;10.210;2022-10-30T04:25:36;38.90;;;18.30;;
68792;SDS011;55778;54.346;10.210;2022-10-30T04:28:01;45.25;;;19.95;;
68792;SDS011;55778;54.346;10.210;2022-10-30T04:30:27;39.95;;;18.92;;
68792;SDS011;55778;54.346;10.210;2022-10-30T04:32:55;49.60;;;20.35;;
68792;SDS011;55778;54.346;10.210;2022-10-30T04:35:25;43.17;;;19.45;;
68792;SDS011;55778;54.346;10.210;2022-10-30T04:37:52;45.72;;;20.67;;
68792;SDS011;55778;54.346;10.210;2022-10-30T04:40:19;53.90;;;21.20;;
68792;SDS011;55778;54.346;10.210;2022-10-30T04:42:46;52.22;;;22.90;;
68792;SDS011;55778;54.346;10.210;2022-10-30T04:45:12;55.25;;;23.05;;
68792;SDS011;55778;54.346;10.210;2022-10-30T04:47:37;48.00;;;22.85;;
68792;SDS011;55778;54.346;10.210;2022-10-30T04:50:03;60.20;;;22.83;;
68792;SDS011;55778;54.346;10.210;2022-10-30T04:52:28;62.08;;;23.85;;
68792;SDS011;55778;54.346;10.210;2022-10-30T04:54:54;57.25;;;23.15;;
68792;SDS011;55778;54.346;10.210;2022-10-30T04:57:19;55.97;;;24.15;;
68792;SDS011;55778;54.346;10.210;2022-10-30T04:59:44;59.53;;;23.83;;
68792;SDS011;55778;54.346;10.210;2022-10-30T05:02:10;60.22;;;25.05;;
68792;SDS011;55778;54.346;10.210;2022-10-30T05:04:35;62.10;;;24.77;;
68792;SDS011;55778;54.346;10.210;2022-10-30T05:07:01;59.38;;;24.58;;
68792;SDS011;55778;54.346;10.210;2022-10-30T05:09:27;56.17;;;23.15;;
68792;SDS011;55778;54.346;10.210;2022-10-30T05:11:53;58.67;;;24.75;;
68792;SDS011;55778;54.346;10.210;2022-10-30T05:14:19;55.83;;;23.63;;
68792;SDS011;55778;54.346;10.210;2022-10-30T05:16:44;60.90;;;24.35;;
68792;SDS011;55778;54.346;10.210;2022-10-30T05:19:09;54.20;;;23.55;;
68792;SDS011;55778;54.346;10.210;2022-10-30T05:21:35;52.10;;;22.52;;
68792;SDS011;55778;54.346;10.210;2022-10-30T05:24:00;53.30;;;23.02;;
68792;SDS011;55778;54.346;10.210;2022-10-30T05:26:25;56.17;;;23.83;;
68792;SDS011;55778;54.346;10.210;2022-10-30T05:28:51;50.78;;;22.98;;
68792;SDS011;55778;54.346;10.210;2022-10-30T05:31:16;51.78;;;21.83;;
68792;SDS011;55778;54.346;10.210;2022-10-30T05:33:42;54.03;;;23.40;;
68792;SDS011;55778;54.346;10.210;2022-10-30T05:36:07;55.40;;;23.95;;
68792;SDS011;55778;54.346;10.210;2022-10-30T05:38:33;63.72;;;25.17;;
68792;SDS011;55778;54.346;10.210;2022-10-30T05:40:58;93.72;;;25.38;;
68792;SDS011;55778;54.346;10.210;2022-10-30T05:43:23;81.10;;;24.95;;
68792;SDS011;55778;54.346;10.210;2022-10-30T05:45:49;79.50;;;23.23;;
68792;SDS011;55778;54.346;10.210;2022-10-30T05:48:14;100.93;;;25.00;;
68792;SDS011;55778;54.346;10.210;2022-10-30T05:50:39;80.70;;;25.45;;
68792;SDS011;55778;54.346;10.210;2022-10-30T05:53:05;156.32;;;26.67;;
68792;SDS011;55778;54.346;10.210;2022-10-30T05:55:30;99.10;;;25.88;;
68792;SDS011;55778;54.346;10.210;2022-10-30T05:57:57;64.63;;;23.85;;
68792;SDS011;55778;54.346;10.210;2022-10-30T06:00:25;101.38;;;24.15;;
68792;SDS011;55778;54.346;10.210;2022-10-30T06:02:51;75.63;;;25.65;;
68792;SDS011;55778;54.346;10.210;2022-10-30T06:05:17;82.00;;;25.33;;
68792;SDS011;55778;54.346;10.210;2022-10-30T06:07:42;83.65;;;25.00;;
68792;SDS011;55778;54.346;10.210;2022-10-30T06:10:08;84.15;;;24.27;;
68792;SDS011;55778;54.346;10.210;2022-10-30T06:12:33;76.43;;;24.85;;
68792;SDS011;55778;54.346;10.210;2022-10-30T06:14:59;67.30;;;25.00;;
68792;SDS011;55778;54.346;10.210;2022-10-30T06:17:24;64.85;;;23.48;;
68792;SDS011;55778;54.346;10.210;2022-10-30T06:19:50;116.05;;;25.63;;
68792;SDS011;55778;54.346;10.210;2022-10-30T06:22:15;64.03;;;25.00;;
68792;SDS011;55778;54.346;10.210;2022-10-30T06:24:40;50.45;;;21.98;;
68792;SDS011;55778;54.346;10.210;2022-10-30T06:27:09;57.33;;;23.67;;
68792;SDS011;55778;54.346;10.210;2022-10-30T06:29:34;46.55;;;22.48;;
68792;SDS011;55778;54.346;10.210;2022-10-30T06:31:59;44.90;;;21.40;;
68792;SDS011;55778;54.346;10.210;2022-10-30T06:34:25;46.03;;;20.98;;
68792;SDS011;55778;54.346;10.210;2022-10-30T06:36:51;47.90;;;21.35;;
68792;SDS011;55778;54.346;10.210;2022-10-30T06:39:16;48.58;;;21.67;;
68792;SDS011;55778;54.346;10.210;2022-10-30T06:41:42;45.15;;;21.08;;
68792;SDS011;55778;54.346;10.210;2022-10-30T06:44:07;77.00;;;33.60;;
68792;SDS011;55778;54.346;10.210;2022-10-30T06:46:33;45.60;;;20.95;;
68792;SDS011;55778;54.346;10.210;2022-10-30T06:48:58;43.55;;;20.13;;
68792;SDS011;55778;54.346;10.210;2022-10-30T06:51:23;43.53;;;20.33;;
68792;SDS011;55778;54.346;10.210;2022-10-30T06:53:49;45.75;;;20.95;;
68792;SDS011;55778;54.346;10.210;2022-10-30T06:56:14;46.50;;;21.17;;
68792;SDS011;55778;54.346;10.210;2022-10-30T06:58:40;40.88;;;19.58;;
68792;SDS011;55778;54.346;10.210;2022-10-30T07:01:06;46.97;;;21.30;;
68792;SDS011;55778;54.346;10.210;2022-10-30T07:03:35;36.25;;;19.08;;
68792;SDS011;55778;54.346;10.210;2022-10-30T07:06:03;35.97;;;18.20;;
68792;SDS011;55778;54.346;10.210;2022-10-30T07:08:28;39.67;;;19.55;;
68792;SDS011;55778;54.346;10.210;2022-10-30T07:10:55;37.22;;;18.42;;
68792;SDS011;55778;54.346;10.210;2022-10-30T07:13:22;33.63;;;17.55;;
68792;SDS011;55778;54.346;10.210;2022-10-30T07:15:47;35.95;;;18.17;;
68792;SDS011;55778;54.346;10.210;2022-10-30T07:18:15;32.00;;;17.15;;
68792;SDS011;55778;54.346;10.210;2022-10-30T07:20:41;29.38;;;15.55;;
68792;SDS011;55778;54.346;10.210;2022-10-30T07:23:06;29.20;;;15.38;;
68792;SDS011;55778;54.346;10.210;2022-10-30T07:25:31;27.42;;;14.20;;
68792;SDS011;55778;54.346;10.210;2022-10-30T07:27:57;30.50;;;14.85;;
68792;SDS011;55778;54.346;10.210;2022-10-30T07:30:23;27.40;;;14.68;;
68792;SDS011;55778;54.346;10.210;2022-10-30T07:33:00;25.63;;;13.45;;
68792;SDS011;55778;54.346;10.210;2022-10-30T07:35:27;26.90;;;13.93;;
68792;SDS011;55778;54.346;10.210;2022-10-30T07:37:53;27.23;;;13.73;;
68792;SDS011;55778;54.346;10.210;2022-10-30T07:40:19;25.42;;;13.40;;
68792;SDS011;55778;54.346;10.210;2022-10-30T07:42:45;29.95;;;15.00;;
68792;SDS011;55778;54.346;10.210;2022-10-30T07:45:11;27.40;;;13.75;;
68792;SDS011;55778;54.346;10.210;2022-10-30T07:47:40;24.63;;;13.43;;
68792;SDS011;55778;54.346;10.210;2022-10-30T07:50:07;26.83;;;13.63;;
68792;SDS011;55778;54.346;10.210;2022-10-30T07:52:33;26.95;;;13.90;;
68792;SDS011;55778;54.346;10.210;2022-10-30T07:55:02;27.27;;;13.82;;
68792;SDS011;55778;54.346;10.210;2022-10-30T07:57:38;27.73;;;13.57;;
68792;SDS011;55778;54.346;10.210;2022-10-30T08:00:09;21.45;;;12.63;;
68792;SDS011;55778;54.346;10.210;2022-10-30T08:02:36;20.73;;;11.77;;
68792;SDS011;55778;54.346;10.210;2022-10-30T08:05:02;20.77;;;11.65;;
68792;SDS011;55778;54.346;10.210;2022-10-30T08:07:33;19.35;;;10.80;;
68792;SDS011;55778;54.346;10.210;2022-10-30T08:09:59;22.73;;;10.80;;
68792;SDS011;55778;54.346;10.210;2022-10-30T08:12:26;18.05;;;10.85;;
68792;SDS011;55778;54.346;10.210;2022-10-30T08:14:52;17.10;;;9.40;;
68792;SDS011;55778;54.346;10.210;2022-10-30T08:17:18;17.50;;;10.02;;
68792;SDS011;55778;54.346;10.210;2022-10-30T08:19:46;18.90;;;10.00;;
68792;SDS011;55778;54.346;10.210;2022-10-30T08:22:12;19.00;;;9.35;;
68792;SDS011;55778;54.346;10.210;2022-10-30T08:24:38;15.35;;;9.40;;
68792;SDS011;55778;54.346;10.210;2022-10-30T08:27:03;14.90;;;9.05;;
68792;SDS011;55778;54.346;10.210;2022-10-30T08:29:29;18.20;;;9.00;;
68792;SDS011;55778;54.346;10.210;2022-10-30T08:31:55;20.58;;;9.75;;
68792;SDS011;55778;54.346;10.210;2022-10-30T08:34:23;16.92;;;8.93;;
68792;SDS011;55778;54.346;10.210;2022-10-30T08:36:51;18.50;;;9.60;;
68792;SDS011;55778;54.346;10.210;2022-10-30T08:39:16;18.77;;;9.48;;
68792;SDS011;55778;54.346;10.210;2022-10-30T08:41:42;18.73;;;9.95;;
68792;SDS011;55778;54.346;10.210;2022-10-30T08:44:08;20.10;;;9.20;;
68792;SDS011;55778;54.346;10.210;2022-10-30T08:46:34;15.05;;;8.82;;
68792;SDS011;55778;54.346;10.210;2022-10-30T08:49:00;16.40;;;9.50;;
68792;SDS011;55778;54.346;10.210;2022-10-30T08:51:25;17.75;;;9.60;;
68792;SDS011;55778;54.346;10.210;2022-10-30T08:53:51;15.18;;;9.07;;
68792;SDS011;55778;54.346;10.210;2022-10-30T08:56:19;16.77;;;9.10;;
68792;SDS011;55778;54.346;10.210;2022-10-30T08:58:44;18.95;;;9.27;;
68792;SDS011;55778;54.346;10.210;2022-10-30T09:01:09;14.88;;;8.70;;
68792;SDS011;55778;54.346;10.210;2022-10-30T09:03:38;24.83;;;12.77;;
68792;SDS011;55778;54.346;10.210;2022-10-30T09:06:03;17.23;;;9.47;;
68792;SDS011;55778;54.346;10.210;2022-10-30T09:08:29;20.65;;;9.80;;
68792;SDS011;55778;54.346;10.210;2022-10-30T09:10:55;17.65;;;9.75;;
68792;SDS011;55778;54.346;10.210;2022-10-30T09:13:21;19.20;;;9.00;;
68792;SDS011;55778;54.346;10.210;2022-10-30T09:15:47;21.38;;;9.90;;
68792;SDS011;55778;54.346;10.210;2022-10-30T09:18:12;20.70;;;9.60;;
68792;SDS011;55778;54.346;10.210;2022-10-30T09:20:38;19.58;;;9.32;;
68792;SDS011;55778;54.346;10.210;2022-10-30T09:23:03;17.27;;;9.25;;
68792;SDS011;55778;54.346;10.210;2022-10-30T09:25:29;19.10;;;8.90;;
68792;SDS011;55778;54.346;10.210;2022-10-30T09:27:54;16.40;;;9.32;;
68792;SDS011;55778;54.346;10.210;2022-10-30T09:30:20;18.35;;;9.05;;
68792;SDS011;55778;54.346;10.210;2022-10-30T09:32:52;20.70;;;10.10;;
68792;SDS011;55778;54.346;10.210;2022-10-30T09:35:18;16.92;;;9.00;;
68792;SDS011;55778;54.346;10.210;2022-10-30T09:37:44;19.75;;;9.98;;
68792;SDS011;55778;54.346;10.210;2022-10-30T09:40:09;19.73;;;10.13;;
68792;SDS011;55778;54.346;10.210;2022-10-30T09:42:44;15.73;;;9.63;;
68792;SDS011;55778;54.346;10.210;2022-10-30T09:45:17;18.33;;;9.45;;
68792;SDS011;55778;54.346;10.210;2022-10-30T09:50:24;16.83;;;9.38;;
68792;SDS011;55778;54.346;10.210;2022-10-30T09:53:06;21.17;;;9.07;;
68792;SDS011;55778;54.346;10.210;2022-10-30T09:58:32;19.73;;;9.38;;
68792;SDS011;55778;54.346;10.210;2022-10-30T10:06:53;20.52;;;8.98;;
68792;SDS011;55778;54.346;10.210;2022-10-30T10:09:24;18.42;;;8.70;;
68792;SDS011;55778;54.346;10.210;2022-10-30T10:11:57;25.10;;;9.85;;
68792;SDS011;55778;54.346;10.210;2022-10-30T10:14:28;16.52;;;9.68;;
68792;SDS011;55778;54.346;10.210;2022-10-30T10:16:57;19.40;;;9.73;;
68792;SDS011;55778;54.346;10.210;2022-10-30T10:22:04;19.52;;;9.77;;
68792;SDS011;55778;54.346;10.210;2022-10-30T10:24:38;18.45;;;9.55;;
68792;SDS011;55778;54.346;10.210;2022-10-30T10:30:08;19.85;;;9.63;;
68792;SDS011;55778;54.346;10.210;2022-10-30T10:51:15;17.15;;;8.43;;
68792;SDS011;55778;54.346;10.210;2022-10-30T10:53:47;16.00;;;8.93;;
68792;SDS011;55778;54.346;10.210;2022-10-30T10:56:16;18.05;;;9.18;;
68792;SDS011;55778;54.346;10.210;2022-10-30T11:01:12;19.73;;;8.48;;
68792;SDS011;55778;54.346;10.210;2022-10-30T11:08:45;19.23;;;8.70;;
68792;SDS011;55778;54.346;10.210;2022-10-30T11:11:11;19.48;;;8.30;;
68792;SDS011;55778;54.346;10.210;2022-10-30T11:13:39;18.80;;;9.00;;
68792;SDS011;55778;54.346;10.210;2022-10-30T11:18:57;18.88;;;8.75;;
68792;SDS011;55778;54.346;10.210;2022-10-30T11:21:26;20.23;;;8.85;;
68792;SDS011;55778;54.346;10.210;2022-10-30T11:23:53;16.30;;;8.40;;
68792;SDS011;55778;54.346;10.210;2022-10-30T11:28:48;17.50;;;9.30;;
68792;SDS011;55778;54.346;10.210;2022-10-30T11:31:17;16.92;;;8.70;;
68792;SDS011;55778;54.346;10.210;2022-10-30T11:33:55;23.27;;;9.30;;
68792;SDS011;55778;54.346;10.210;2022-10-30T11:36:21;19.93;;;9.33;;
68792;SDS011;55778;54.346;10.210;2022-10-30T11:38:49;19.70;;;8.60;;
68792;SDS011;55778;54.346;10.210;2022-10-30T11:41:15;22.15;;;9.48;;
68792;SDS011;55778;54.346;10.210;2022-10-30T11:43:41;18.90;;;8.90;;
68792;SDS011;55778;54.346;10.210;2022-10-30T11:46:08;21.42;;;9.23;;
68792;SDS011;55778;54.346;10.210;2022-10-30T11:48:42;18.48;;;9.27;;
68792;SDS011;55778;54.346;10.210;2022-10-30T12:01:37;20.08;;;9.48;;
68792;SDS011;55778;54.346;10.210;2022-10-30T12:07:50;20.42;;;9.20;;
68792;SDS011;55778;54.346;10.210;2022-10-30T12:10:28;17.95;;;8.75;;
68792;SDS011;55778;54.346;10.210;2022-10-30T12:12:54;20.25;;;9.52;;
68792;SDS011;55778;54.346;10.210;2022-10-30T12:15:22;19.95;;;9.55;;
68792;SDS011;55778;54.346;10.210;2022-10-30T12:17:50;20.90;;;9.43;;
68792;SDS011;55778;54.346;10.210;2022-10-30T12:20:23;19.55;;;8.15;;
68792;SDS011;55778;54.346;10.210;2022-10-30T12:22:49;17.85;;;8.65;;
68792;SDS011;55778;54.346;10.210;2022-10-30T12:25:21;17.40;;;8.60;;
68792;SDS011;55778;54.346;10.210;2022-10-30T12:27:47;21.70;;;9.30;;
68792;SDS011;55778;54.346;10.210;2022-10-30T12:30:14;21.52;;;9.10;;
68792;SDS011;55778;54.346;10.210;2022-10-30T12:38:00;18.10;;;8.95;;
68792;SDS011;55778;54.346;10.210;2022-10-30T12:40:30;20.77;;;8.95;;
68792;SDS011;55778;54.346;10.210;2022-10-30T12:43:04;20.05;;;8.95;;
68792;SDS011;55778;54.346;10.210;2022-10-30T12:45:43;17.77;;;9.75;;
68792;SDS011;55778;54.346;10.210;2022-10-30T12:50:56;24.23;;;9.23;;
68792;SDS011;55778;54.346;10.210;2022-10-30T12:58:52;18.08;;;9.13;;
68792;SDS011;55778;54.346;10.210;2022-10-30T13:01:21;24.48;;;9.25;;
68792;SDS011;55778;54.346;10.210;2022-10-30T13:03:56;16.85;;;8.68;;
68792;SDS011;55778;54.346;10.210;2022-10-30T13:06:31;20.23;;;9.90;;
68792;SDS011;55778;54.346;10.210;2022-10-30T13:14:17;21.02;;;8.93;;
68792;SDS011;55778;54.346;10.210;2022-10-30T13:16:45;20.25;;;8.90;;
68792;SDS011;55778;54.346;10.210;2022-10-30T13:19:11;20.20;;;8.52;;
68792;SDS011;55778;54.346;10.210;2022-10-30T13:21:39;23.95;;;10.07;;
68792;SDS011;55778;54.346;10.210;2022-10-30T13:27:05;19.80;;;8.45;;
68792;SDS011;55778;54.346;10.210;2022-10-30T13:40:50;21.60;;;9.80;;
68792;SDS011;55778;54.346;10.210;2022-10-30T13:53:53;18.88;;;9.40;;
68792;SDS011;55778;54.346;10.210;2022-10-30T13:56:41;17.88;;;9.23;;
68792;SDS011;55778;54.346;10.210;2022-10-30T14:11:22;20.50;;;9.10;;
68792;SDS011;55778;54.346;10.210;2022-10-30T14:13:54;16.48;;;9.00;;
68792;SDS011;55778;54.346;10.210;2022-10-30T14:24:23;22.63;;;8.63;;
68792;SDS011;55778;54.346;10.210;2022-10-30T14:43:07;18.70;;;8.55;;
68792;SDS011;55778;54.346;10.210;2022-10-30T14:48:17;18.63;;;8.50;;
68792;SDS011;55778;54.346;10.210;2022-10-30T15:21:40;37.25;;;20.05;;
68792;SDS011;55778;54.346;10.210;2022-10-30T15:46:56;33.33;;;15.93;;
68792;SDS011;55778;54.346;10.210;2022-10-30T16:04:23;26.30;;;13.50;;
68792;SDS011;55778;54.346;10.210;2022-10-30T16:06:54;28.92;;;13.18;;
68792;SDS011;55778;54.346;10.210;2022-10-30T16:09:22;25.88;;;12.70;;
68792;SDS011;55778;54.346;10.210;2022-10-30T16:11:48;25.25;;;13.25;;
68792;SDS011;55778;54.346;10.210;2022-10-30T16:14:25;25.20;;;12.75;;
68792;SDS011;55778;54.346;10.210;2022-10-30T16:16:53;33.03;;;15.55;;
68792;SDS011;55778;54.346;10.210;2022-10-30T16:19:24;28.70;;;15.05;;
68792;SDS011;55778;54.346;10.210;2022-10-30T16:21:52;24.77;;;13.45;;
68792;SDS011;55778;54.346;10.210;2022-10-30T16:24:20;26.10;;;13.45;;
68792;SDS011;55778;54.346;10.210;2022-10-30T16:27:01;30.70;;;14.43;;
68792;SDS011;55778;54.346;10.210;2022-10-30T16:29:28;27.83;;;14.82;;
68792;SDS011;55778;54.346;10.210;2022-10-30T16:31:55;35.17;;;19.25;;
68792;SDS011;55778;54.346;10.210;2022-10-30T16:34:30;34.30;;;18.38;;
68792;SDS011;55778;54.346;10.210;2022-10-30T16:37:03;33.47;;;15.48;;
68792;SDS011;55778;54.346;10.210;2022-10-30T16:39:31;32.83;;;14.55;;
68792;SDS011;55778;54.346;10.210;2022-10-30T16:41:58;30.42;;;15.02;;
68792;SDS011;55778;54.346;10.210;2022-10-30T16:44:25;27.20;;;13.98;;
68792;SDS011;55778;54.346;10.210;2022-10-30T16:47:04;29.23;;;13.73;;
68792;SDS011;55778;54.346;10.210;2022-10-30T16:49:35;31.65;;;14.52;;
68792;SDS011;55778;54.346;10.210;2022-10-30T16:52:03;31.60;;;14.82;;
68792;SDS011;55778;54.346;10.210;2022-10-30T16:54:31;29.70;;;15.23;;
68792;SDS011;55778;54.346;10.210;2022-10-30T16:57:02;35.03;;;17.83;;
68792;SDS011;55778;54.346;10.210;2022-10-30T16:59:34;34.38;;;17.85;;
68792;SDS011;55778;54.346;10.210;2022-10-30T17:02:04;31.52;;;18.40;;
68792;SDS011;55778;54.346;10.210;2022-10-30T17:04:38;34.60;;;16.65;;
68792;SDS011;55778;54.346;10.210;2022-10-30T17:07:16;26.60;;;15.10;;
68792;SDS011;55778;54.346;10.210;2022-10-30T17:29:47;32.40;;;17.00;;
68792;SDS011;55778;54.346;10.210;2022-10-30T17:50:02;35.72;;;17.85;;
68792;SDS011;55778;54.346;10.210;2022-10-30T17:52:35;37.92;;;17.98;;
68792;SDS011;55778;54.346;10.210;2022-10-30T17:55:01;36.40;;;18.27;;
68792;SDS011;55778;54.346;10.210;2022-10-30T17:57:32;38.70;;;19.25;;
68792;SDS011;55778;54.346;10.210;2022-10-30T18:00:03;40.05;;;19.83;;
68792;SDS011;55778;54.346;10.210;2022-10-30T18:02:37;43.28;;;19.60;;
68792;SDS011;55778;54.346;10.210;2022-10-30T18:05:13;43.80;;;20.05;;
68792;SDS011;55778;54.346;10.210;2022-10-30T18:07:41;37.35;;;18.63;;
68792;SDS011;55778;54.346;10.210;2022-10-30T18:10:12;34.47;;;19.23;;
68792;SDS011;55778;54.346;10.210;2022-10-30T18:12:40;33.85;;;18.00;;
68792;SDS011;55778;54.346;10.210;2022-10-30T18:17:52;36.70;;;19.40;;
68792;SDS011;55778;54.346;10.210;2022-10-30T18:20:18;34.17;;;18.75;;
68792;SDS011;55778;54.346;10.210;2022-10-30T18:22:44;34.95;;;18.67;;
68792;SDS011;55778;54.346;10.210;2022-10-30T18:25:14;35.72;;;18.50;;
68792;SDS011;55778;54.346;10.210;2022-10-30T18:27:46;38.03;;;19.95;;
68792;SDS011;55778;54.346;10.210;2022-10-30T18:30:15;36.50;;;19.45;;
68792;SDS011;55778;54.346;10.210;2022-10-30T18:32:44;40.47;;;19.33;;
68792;SDS011;55778;54.346;10.210;2022-10-30T18:35:12;36.08;;;18.88;;
68792;SDS011;55778;54.346;10.210;2022-10-30T18:37:39;39.22;;;18.52;;
68792;SDS011;55778;54.346;10.210;2022-10-30T18:40:08;35.33;;;18.40;;
68792;SDS011;55778;54.346;10.210;2022-10-30T18:42:37;36.72;;;19.70;;
68792;SDS011;55778;54.346;10.210;2022-10-30T18:45:16;42.53;;;21.52;;
68792;SDS011;55778;54.346;10.210;2022-10-30T18:47:48;42.15;;;21.33;;
68792;SDS011;55778;54.346;10.210;2022-10-30T18:50:14;81.03;;;40.95;;
68792;SDS011;55778;54.346;10.210;2022-10-30T18:52:47;43.53;;;21.15;;
68792;SDS011;55778;54.346;10.210;2022-10-30T18:58:06;43.75;;;20.95;;
68792;SDS011;55778;54.346;10.210;2022-10-30T19:00:38;43.38;;;21.20;;
68792;SDS011;55778;54.346;10.210;2022-10-30T19:03:12;39.67;;;20.55;;